createdAt,value
2019-05-15T00:02:18.438Z,89.20
2019-05-15T00:04:49.171Z,90.30
2019-05-15T00:07:18.734Z,89.70
2019-05-15T00:09:49.143Z,88.90
2019-05-15T00:12:19.031Z,90.10
2019-05-15T00:14:48.658Z,90.40
2019-05-15T00:17:19.223Z,90.50
2019-05-15T00:19:48.710Z,90.70
2019-05-15T00:22:19.171Z,90.90
2019-05-15T00:24:48.834Z,91.60
2019-05-15T00:27:20.174Z,91.30
2019-05-15T00:29:49.605Z,91.20
2019-05-15T00:32:18.932Z,91.20
2019-05-15T00:34:48.829Z,91.40
2019-05-15T00:37:18.379Z,91.60
2019-05-15T00:39:48.635Z,91.80
2019-05-15T00:42:19.049Z,91.70
2019-05-15T00:44:49.342Z,91.80
2019-05-15T00:47:18.784Z,91.90
2019-05-15T00:49:48.784Z,92.50
2019-05-15T00:52:18.362Z,92.60
2019-05-15T00:54:48.430Z,92.50
2019-05-15T00:57:19.262Z,92.50
2019-05-15T00:59:49.180Z,93.00
2019-05-15T01:02:18.516Z,93.20
2019-05-15T01:04:48.054Z,93.20
2019-05-15T01:07:18.846Z,93.30
2019-05-15T01:09:48.693Z,93.00
2019-05-15T01:12:19.208Z,92.90
2019-05-15T01:14:48.982Z,92.80
2019-05-15T01:17:18.607Z,93.30
2019-05-15T01:19:48.286Z,93.20
2019-05-15T01:22:19.473Z,93.40
2019-05-15T01:24:49.032Z,93.40
2019-05-15T01:27:18.551Z,93.60
2019-05-15T01:29:49.380Z,94.00
2019-05-15T01:32:19.200Z,94.40
2019-05-15T01:34:49.192Z,94.00
2019-05-15T01:37:19.011Z,94.10
2019-05-15T01:39:48.603Z,94.20
2019-05-15T01:42:18.593Z,94.30
2019-05-15T01:44:48.523Z,94.20
2019-05-15T01:47:18.935Z,94.10
2019-05-15T01:49:49.024Z,94.60
2019-05-15T01:52:18.891Z,94.80
2019-05-15T01:54:48.921Z,94.50
2019-05-15T01:57:20.640Z,94.50
2019-05-15T01:59:57.207Z,94.50
2019-05-15T02:02:20.965Z,94.30
2019-05-15T02:04:50.288Z,94.30
2019-05-15T02:07:19.608Z,94.60
2019-05-15T02:09:49.343Z,94.70
2019-05-15T02:12:19.163Z,95.20
2019-05-15T02:14:48.738Z,95.20
2019-05-15T02:17:18.944Z,95.50
2019-05-15T02:19:48.670Z,95.50
2019-05-15T02:22:19.371Z,95.20
2019-05-15T02:24:48.718Z,95.30
2019-05-15T02:27:18.823Z,95.70
2019-05-15T02:29:49.286Z,95.70
2019-05-15T02:32:19.419Z,96.20
2019-05-15T02:34:50.065Z,95.80
2019-05-15T02:37:20.740Z,96.00
2019-05-15T02:39:51.244Z,96.20
2019-05-15T02:42:20.572Z,96.20
2019-05-15T02:44:50.216Z,96.50
2019-05-15T02:47:20.047Z,96.30
2019-05-15T02:49:49.660Z,96.30
2019-05-15T02:52:19.837Z,96.20
2019-05-15T02:54:50.007Z,95.90
2019-05-15T02:57:19.500Z,95.70
2019-05-15T02:59:50.130Z,95.60
2019-05-15T03:02:20.560Z,95.40
2019-05-15T03:04:50.276Z,95.70
2019-05-15T03:07:19.635Z,95.80
2019-05-15T03:09:49.706Z,96.00
2019-05-15T03:12:20.427Z,96.00
2019-05-15T03:14:49.826Z,95.90
2019-05-15T03:17:19.286Z,96.20
2019-05-15T03:19:50.082Z,96.20
2019-05-15T03:22:19.835Z,96.50
2019-05-15T03:24:50.212Z,96.40
2019-05-15T03:27:20.002Z,96.20
2019-05-15T03:29:49.595Z,96.10
2019-05-15T03:32:32.741Z,96.30
2019-05-15T03:34:56.059Z,96.30
2019-05-15T03:37:22.430Z,96.60
2019-05-15T03:39:52.312Z,97.00
2019-05-15T03:42:21.683Z,96.60
2019-05-15T03:44:50.982Z,96.80
2019-05-15T03:47:19.620Z,97.10
2019-05-15T03:49:49.504Z,96.70
2019-05-15T03:52:19.499Z,96.40
2019-05-15T03:54:49.578Z,96.10
2019-05-15T03:57:22.811Z,96.10
2019-05-15T03:59:50.095Z,96.50
2019-05-15T04:02:19.740Z,96.80
2019-05-15T04:04:50.197Z,96.80
2019-05-15T04:07:19.874Z,96.70
2019-05-15T04:09:50.318Z,96.70
2019-05-15T04:12:20.843Z,97.10
2019-05-15T04:14:50.324Z,96.60
2019-05-15T04:17:20.010Z,96.80
2019-05-15T04:19:49.748Z,96.80
2019-05-15T04:22:19.887Z,96.70
2019-05-15T04:24:50.651Z,97.30
2019-05-15T04:27:21.478Z,97.10
2019-05-15T04:29:50.030Z,97.20
2019-05-15T04:32:20.156Z,97.20
2019-05-15T04:34:50.051Z,97.10
2019-05-15T04:37:19.400Z,96.80
2019-05-15T04:39:49.278Z,97.00
2019-05-15T04:42:20.446Z,97.10
2019-05-15T04:44:50.049Z,97.50
2019-05-15T04:47:19.461Z,97.40
2019-05-15T04:49:50.333Z,97.40
2019-05-15T04:52:20.962Z,97.60
2019-05-15T04:54:51.423Z,97.50
2019-05-15T04:57:20.742Z,97.30
2019-05-15T04:59:50.087Z,97.20
2019-05-15T05:02:26.308Z,97.10
2019-05-15T05:04:50.488Z,96.60
2019-05-15T05:07:21.511Z,96.50
2019-05-15T05:09:51.285Z,96.80
2019-05-15T05:12:20.695Z,96.70
2019-05-15T05:14:50.055Z,96.50
2019-05-15T05:17:19.625Z,96.60
2019-05-15T05:19:51.344Z,96.50
2019-05-15T05:22:20.206Z,96.50
2019-05-15T05:24:49.634Z,96.10
2019-05-15T05:27:18.955Z,96.30
2019-05-15T05:29:48.288Z,96.00
2019-05-15T05:32:31.404Z,96.30
2019-05-15T05:34:48.688Z,95.70
2019-05-15T05:37:18.458Z,95.60
2019-05-15T05:39:48.410Z,95.60
2019-05-15T05:42:18.546Z,95.40
2019-05-15T05:44:49.085Z,95.20
2019-05-15T05:47:18.475Z,95.00
2019-05-15T05:49:48.860Z,94.90
2019-05-15T05:52:18.659Z,94.60
2019-05-15T05:54:49.015Z,94.30
2019-05-15T05:57:19.414Z,94.40
2019-05-15T05:59:49.120Z,94.10
2019-05-15T06:02:19.573Z,95.00
2019-05-15T06:04:48.909Z,93.80
2019-05-15T06:07:18.654Z,94.60
2019-05-15T06:09:48.620Z,93.50
2019-05-15T06:12:18.926Z,93.50
2019-05-15T06:14:48.586Z,92.90
2019-05-15T06:17:19.029Z,92.60
2019-05-15T06:19:48.548Z,91.50
2019-05-15T06:22:18.823Z,91.50
2019-05-15T06:24:48.603Z,90.30
2019-05-15T06:27:20.015Z,87.50
2019-05-15T06:29:49.296Z,86.70
2019-05-15T06:32:19.447Z,86.90
2019-05-15T06:34:49.118Z,87.00
2019-05-15T06:37:19.711Z,85.50
2019-05-15T06:39:48.439Z,83.60
2019-05-15T06:42:18.795Z,84.10
2019-05-15T06:44:48.333Z,83.40
2019-05-15T06:47:18.863Z,80.30
2019-05-15T06:49:48.728Z,78.70
2019-05-15T06:52:18.267Z,77.10
2019-05-15T06:54:48.506Z,75.80
2019-05-15T06:57:18.491Z,75.40
2019-05-15T06:59:49.117Z,76.70
2019-05-15T07:02:19.022Z,77.40
2019-05-15T07:04:48.852Z,76.00
2019-05-15T07:07:19.443Z,75.60
2019-05-15T07:09:48.849Z,76.40
2019-05-15T07:12:18.782Z,74.70
2019-05-15T07:14:49.287Z,75.60
2019-05-15T07:17:18.707Z,77.00
2019-05-15T07:20:00.498Z,74.40
2019-05-15T07:22:29.828Z,73.00
2019-05-15T07:24:59.124Z,74.10
2019-05-15T07:27:28.466Z,74.10
2019-05-15T07:29:58.345Z,70.90
2019-05-15T07:32:28.542Z,71.10
2019-05-15T07:34:58.143Z,72.30
2019-05-15T07:37:28.998Z,70.60
2019-05-15T07:39:59.189Z,67.00
2019-05-15T07:42:29.138Z,66.20
2019-05-15T07:44:58.945Z,70.20
2019-05-15T07:47:29.343Z,69.30
2019-05-15T07:49:59.148Z,66.30
2019-05-15T07:52:28.897Z,65.20
2019-05-15T07:54:58.476Z,65.10
2019-05-15T07:57:29.882Z,64.20
2019-05-15T07:59:58.939Z,62.60
2019-05-15T08:02:28.493Z,61.20
2019-05-15T08:04:57.985Z,62.20
2019-05-15T08:07:27.868Z,63.70
2019-05-15T08:09:59.230Z,63.20
2019-05-15T08:12:28.462Z,62.10
2019-05-15T08:14:58.318Z,61.70
2019-05-15T08:17:28.995Z,60.30
2019-05-15T08:19:58.261Z,62.30
2019-05-15T08:22:28.464Z,58.80
2019-05-15T08:24:59.127Z,60.10
2019-05-15T08:27:29.850Z,59.30
2019-05-15T08:29:59.512Z,60.80
2019-05-15T08:32:28.896Z,58.20
2019-05-15T08:34:58.711Z,57.70
2019-05-15T08:37:29.290Z,55.40
2019-05-15T08:39:59.547Z,57.90
2019-05-15T08:42:32.435Z,56.30
2019-05-15T08:45:03.300Z,57.40
2019-05-15T08:47:32.647Z,56.10
2019-05-15T08:50:01.996Z,55.40
2019-05-15T08:52:31.471Z,54.60
2019-05-15T08:55:00.876Z,53.40
2019-05-15T08:57:30.250Z,53.30
2019-05-15T08:59:59.571Z,54.60
2019-05-15T09:02:28.947Z,52.80
2019-05-15T09:04:58.281Z,54.40
2019-05-15T09:07:28.703Z,53.40
2019-05-15T09:09:58.026Z,51.60
2019-05-15T09:12:29.452Z,53.70
2019-05-15T09:14:58.633Z,52.80
2019-05-15T09:17:28.571Z,50.60
2019-05-15T09:19:58.835Z,49.40
2019-05-15T09:22:29.204Z,49.60
2019-05-15T09:24:59.078Z,47.90
2019-05-15T09:27:28.402Z,50.40
2019-05-15T09:29:59.299Z,50.80
2019-05-15T09:32:29.666Z,49.00
2019-05-15T09:34:59.407Z,46.60
2019-05-15T09:37:28.908Z,50.30
2019-05-15T09:39:58.875Z,46.10
2019-05-15T09:42:28.712Z,48.30
2019-05-15T09:44:58.389Z,48.00
2019-05-15T09:47:39.739Z,45.90
2019-05-15T09:50:09.878Z,48.50
2019-05-15T09:52:39.757Z,48.40
2019-05-15T09:55:09.721Z,44.70
2019-05-15T09:57:39.391Z,44.30
2019-05-15T10:00:11.020Z,44.50
2019-05-15T10:02:40.518Z,45.80
2019-05-15T10:05:11.449Z,41.20
2019-05-15T10:07:41.118Z,42.10
2019-05-15T10:10:11.926Z,41.10
2019-05-15T10:12:41.538Z,40.10
2019-05-15T10:15:11.853Z,43.00
2019-05-15T10:17:41.458Z,41.10
2019-05-15T10:20:11.354Z,39.80
2019-05-15T10:22:40.839Z,38.40
2019-05-15T10:25:10.622Z,38.30
2019-05-15T10:27:40.045Z,37.00
2019-05-15T10:30:10.198Z,41.10
2019-05-15T10:32:40.010Z,37.70
2019-05-15T10:35:24.599Z,38.60
2019-05-15T10:37:42.284Z,38.70
2019-05-15T10:40:11.605Z,37.30
2019-05-15T10:42:40.980Z,38.60
2019-05-15T10:45:11.435Z,37.30
2019-05-15T10:47:40.800Z,37.90
2019-05-15T10:50:11.149Z,38.20
2019-05-15T10:52:39.670Z,37.30
2019-05-15T10:55:09.794Z,34.30
2019-05-15T10:57:42.762Z,35.30
2019-05-15T11:00:10.861Z,36.30
2019-05-15T11:02:40.196Z,36.50
2019-05-15T11:05:11.556Z,38.40
2019-05-15T11:07:40.851Z,38.00
2019-05-15T11:10:10.794Z,37.10
2019-05-15T11:12:40.396Z,38.60
2019-05-15T11:15:11.427Z,38.50
2019-05-15T11:17:41.017Z,40.70
2019-05-15T11:20:10.746Z,39.50
2019-05-15T11:22:42.886Z,38.60
2019-05-15T11:25:11.641Z,37.20
2019-05-15T11:27:41.013Z,34.00
2019-05-15T11:30:11.266Z,32.30
2019-05-15T11:32:40.720Z,32.90
2019-05-15T11:35:10.565Z,34.30
2019-05-15T11:37:45.662Z,32.50
2019-05-15T11:40:11.920Z,34.50
2019-05-15T11:42:41.376Z,35.80
2019-05-15T11:45:11.216Z,35.80
2019-05-15T11:47:40.627Z,36.60
2019-05-15T11:50:11.733Z,38.40
2019-05-15T11:52:41.140Z,37.20
2019-05-15T11:55:10.904Z,32.90
2019-05-15T11:57:46.981Z,32.60
2019-05-15T12:00:17.370Z,28.40
2019-05-15T12:02:43.871Z,29.70
2019-05-15T12:05:13.705Z,28.60
2019-05-15T12:07:43.041Z,31.70
2019-05-15T12:10:12.979Z,33.30
2019-05-15T12:12:42.354Z,34.00
2019-05-15T12:15:13.155Z,34.60
2019-05-15T12:17:42.461Z,36.20
2019-05-15T12:20:11.997Z,35.80
2019-05-15T12:22:41.334Z,37.70
2019-05-15T12:25:11.122Z,34.50
2019-05-15T12:27:40.689Z,33.70
2019-05-15T12:30:11.449Z,32.80
2019-05-15T12:32:40.874Z,33.50
2019-05-15T12:35:10.842Z,31.90
2019-05-15T12:37:40.408Z,32.20
2019-05-15T13:00:22.452Z,33.70
2019-05-15T13:02:51.788Z,34.70
2019-05-15T13:05:21.171Z,34.30
2019-05-15T13:07:50.494Z,38.10
2019-05-15T13:10:19.861Z,37.00
2019-05-15T13:13:00.305Z,33.50
2019-05-15T13:15:21.497Z,33.10
2019-05-15T13:17:53.097Z,33.60
2019-05-15T13:20:21.849Z,33.90
2019-05-15T13:25:22.958Z,35.90
2019-05-15T13:27:51.620Z,37.70
2019-05-15T13:30:21.154Z,37.10
2019-05-15T13:32:50.504Z,35.30
2019-05-15T13:35:19.883Z,37.40
2019-05-15T13:37:49.696Z,37.00
2019-05-15T13:40:32.826Z,37.20
2019-05-15T13:42:51.847Z,37.90
2019-05-15T13:45:21.474Z,38.30
2019-05-15T13:47:50.870Z,37.80
2019-05-15T13:50:20.624Z,36.50
2019-05-15T13:52:50.019Z,37.00
2019-05-15T13:55:25.449Z,36.40
2019-05-15T13:57:50.555Z,37.50
2019-05-15T14:00:20.302Z,36.10
2019-05-15T14:02:49.711Z,35.40
2019-05-15T14:05:19.009Z,36.00
2019-05-15T14:07:50.690Z,34.80
2019-05-15T14:10:19.616Z,35.30
2019-05-15T14:12:49.024Z,36.10
2019-05-15T14:15:18.992Z,41.20
2019-05-15T14:17:48.410Z,39.00
2019-05-15T14:20:18.945Z,39.20
2019-05-15T14:22:48.522Z,39.10
2019-05-15T14:25:18.258Z,38.20
2019-05-15T14:27:48.647Z,39.90
2019-05-15T14:30:18.189Z,39.40
2019-05-15T14:32:48.416Z,39.90
2019-05-15T14:35:19.153Z,42.40
2019-05-15T14:38:02.194Z,40.80
2019-05-15T14:40:19.784Z,40.90
2019-05-15T14:42:49.116Z,39.80
2019-05-15T14:45:20.072Z,39.00
2019-05-15T14:47:49.537Z,40.00
2019-05-15T14:50:19.038Z,41.00
2019-05-15T14:52:48.341Z,41.30
2019-05-15T14:55:19.817Z,41.90
2019-05-15T14:57:51.857Z,40.80
2019-05-15T15:00:21.773Z,42.40
2019-05-15T15:02:51.270Z,41.20
2019-05-15T15:05:22.550Z,41.30
2019-05-15T15:07:52.691Z,40.70
2019-05-15T15:10:21.979Z,40.10
2019-05-15T15:12:52.386Z,41.30
2019-05-15T15:15:21.686Z,40.80
2019-05-15T15:17:51.022Z,40.30
2019-05-15T15:20:20.681Z,40.80
2019-05-15T15:22:50.121Z,40.10
2019-05-15T15:25:19.408Z,41.40
2019-05-15T15:27:48.734Z,40.20
2019-05-15T15:30:19.473Z,43.00
2019-05-15T15:32:49.191Z,42.80
2019-05-15T15:35:19.000Z,42.20
2019-05-15T15:37:48.802Z,42.70
2019-05-15T15:40:19.004Z,43.20
2019-05-15T15:42:48.636Z,42.60
2019-05-15T15:45:19.427Z,41.90
2019-05-15T15:48:08.563Z,41.80
2019-05-15T15:50:38.553Z,44.30
2019-05-15T15:53:09.051Z,42.50
2019-05-15T15:55:39.680Z,45.10
2019-05-15T15:58:09.885Z,43.60
2019-05-15T16:00:40.294Z,43.80
2019-05-15T16:03:09.616Z,41.90
2019-05-15T16:05:38.948Z,43.30
2019-05-15T16:08:08.640Z,44.80
2019-05-15T16:10:38.262Z,44.00
2019-05-15T16:13:09.276Z,44.30
2019-05-15T16:15:38.795Z,44.20
2019-05-15T16:18:08.983Z,42.90
2019-05-15T16:20:39.540Z,45.60
2019-05-15T16:23:09.564Z,43.30
2019-05-15T16:25:38.964Z,43.90
2019-05-15T16:28:08.959Z,43.20
2019-05-15T16:30:50.281Z,44.30
2019-05-15T16:33:09.988Z,43.90
2019-05-15T16:35:39.510Z,44.30
2019-05-15T16:38:09.473Z,45.20
2019-05-15T16:40:39.019Z,43.10
2019-05-15T16:43:08.344Z,43.20
2019-05-15T16:45:39.033Z,43.90
2019-05-15T16:48:09.409Z,44.90
2019-05-15T16:50:51.278Z,44.40
2019-05-15T16:53:20.696Z,43.40
2019-05-15T16:55:50.013Z,45.40
2019-05-15T16:58:19.515Z,45.90
2019-05-15T17:00:49.648Z,43.80
2019-05-15T17:03:19.242Z,43.90
2019-05-15T17:05:48.546Z,45.50
2019-05-15T17:08:18.051Z,44.70
2019-05-15T17:11:08.067Z,45.10
2019-05-15T17:13:39.415Z,45.60
2019-05-15T17:16:09.233Z,45.30
2019-05-15T17:18:38.563Z,47.10
2019-05-15T17:21:10.032Z,46.00
2019-05-15T17:23:39.364Z,45.50
2019-05-15T17:26:09.005Z,46.30
2019-05-15T17:28:38.544Z,46.90
2019-05-15T17:31:09.189Z,47.30
2019-05-15T17:33:39.583Z,47.10
2019-05-15T17:36:08.890Z,46.90
2019-05-15T17:38:38.402Z,47.50
2019-05-15T17:41:09.438Z,49.20
2019-05-15T17:43:38.764Z,49.60
2019-05-15T17:46:08.840Z,49.90
2019-05-15T17:48:38.862Z,47.80
2019-05-15T17:51:09.242Z,48.10
2019-05-15T17:53:38.413Z,49.70
2019-05-15T17:56:07.758Z,50.20
2019-05-15T17:58:38.161Z,49.80
2019-05-15T18:01:08.755Z,51.30
2019-05-15T18:03:39.207Z,51.60
2019-05-15T18:06:09.041Z,51.80
2019-05-15T18:08:39.173Z,52.10
2019-05-15T18:11:08.760Z,51.70
2019-05-15T18:13:38.356Z,52.10
2019-05-15T18:16:13.620Z,52.40
2019-05-15T18:18:38.839Z,52.70
2019-05-15T18:21:08.984Z,52.10
2019-05-15T18:23:39.050Z,51.70
2019-05-15T18:26:09.062Z,52.00
2019-05-15T18:28:38.950Z,52.30
2019-05-15T18:31:09.041Z,53.70
2019-05-15T18:33:46.580Z,54.30
2019-05-15T18:36:10.018Z,54.30
2019-05-15T18:38:39.794Z,54.30
2019-05-15T18:41:10.248Z,55.40
2019-05-15T18:43:39.620Z,55.20
2019-05-15T18:46:09.159Z,55.10
2019-05-15T18:48:38.745Z,55.30
2019-05-15T18:51:09.229Z,55.70
2019-05-15T18:53:38.945Z,55.60
2019-05-15T18:56:09.054Z,56.00
2019-05-15T18:58:38.685Z,57.30
2019-05-15T19:01:09.355Z,55.90
2019-05-15T19:03:40.207Z,54.30
2019-05-15T19:06:22.885Z,55.60
2019-05-15T19:08:53.269Z,54.90
2019-05-15T19:11:22.949Z,53.60
2019-05-15T19:13:52.387Z,54.80
2019-05-15T19:16:21.768Z,54.90
2019-05-15T19:18:51.104Z,55.80
2019-05-15T19:21:20.411Z,54.50
2019-05-15T19:23:49.925Z,54.40
2019-05-15T19:26:19.224Z,54.80
2019-05-15T19:28:48.876Z,55.10
2019-05-15T19:31:26.652Z,54.20
2019-05-15T19:33:49.419Z,54.20
2019-05-15T19:36:18.774Z,55.80
2019-05-15T19:38:48.515Z,55.60
2019-05-15T19:41:18.830Z,54.50
2019-05-15T19:43:48.764Z,55.60
2019-05-15T19:46:18.361Z,55.60
2019-05-15T19:48:48.924Z,55.30
2019-05-15T19:51:18.440Z,54.30
2019-05-15T19:53:47.974Z,53.90
2019-05-15T19:56:18.874Z,55.40
2019-05-15T19:58:48.579Z,54.90
2019-05-15T20:01:18.878Z,54.50
2019-05-15T20:03:53.052Z,55.20
2019-05-15T20:06:21.129Z,55.80
2019-05-15T20:08:50.594Z,55.40
2019-05-15T20:11:19.978Z,55.10
2019-05-15T20:13:49.590Z,55.60
2019-05-15T20:16:21.428Z,57.40
2019-05-15T20:18:50.249Z,56.60
2019-05-15T20:21:19.773Z,56.90
2019-05-15T20:23:50.247Z,58.00
2019-05-15T20:26:20.832Z,57.00
2019-05-15T20:28:50.191Z,56.90
2019-05-15T20:31:19.521Z,58.00
2019-05-15T20:34:02.186Z,57.70
2019-05-15T20:36:20.187Z,57.40
2019-05-15T20:38:49.519Z,58.30
2019-05-15T20:41:19.480Z,59.20
2019-05-15T20:43:49.167Z,60.10
2019-05-15T20:46:19.337Z,60.70
2019-05-15T20:48:48.935Z,59.20
2019-05-15T20:51:19.346Z,59.50
2019-05-15T20:53:48.758Z,59.70
2019-05-15T20:56:19.307Z,59.60
2019-05-15T20:58:48.652Z,60.20
2019-05-15T21:01:18.384Z,61.00
2019-05-15T21:03:50.390Z,61.00
2019-05-15T21:06:19.120Z,61.20
2019-05-15T21:08:48.891Z,63.80
2019-05-15T21:11:18.503Z,62.50
2019-05-15T21:13:49.147Z,62.90
2019-05-15T21:16:18.928Z,62.50
2019-05-15T21:18:48.684Z,63.10
2019-05-15T21:21:19.117Z,63.60
2019-05-15T21:23:49.193Z,63.10
2019-05-15T21:26:18.943Z,62.80
2019-05-15T21:28:48.462Z,64.50
2019-05-15T21:31:21.927Z,65.50
2019-05-15T21:33:50.413Z,64.80
2019-05-15T21:36:19.920Z,65.50
2019-05-15T21:38:49.362Z,65.50
2019-05-15T21:41:18.967Z,67.80
2019-05-15T21:43:50.418Z,69.10
2019-05-15T21:46:19.472Z,70.30
2019-05-15T21:48:48.878Z,71.30
2019-05-15T21:51:18.845Z,72.00
2019-05-15T21:53:48.295Z,71.50
2019-05-15T21:56:18.813Z,71.00
2019-05-15T21:58:48.414Z,70.80
2019-05-15T22:01:19.681Z,71.70
2019-05-15T22:03:49.531Z,71.10
2019-05-15T22:06:18.971Z,72.30
2019-05-15T22:08:49.350Z,71.90
2019-05-15T22:11:21.840Z,70.90
2019-05-15T22:13:51.507Z,71.00
2019-05-15T22:16:20.954Z,71.60
2019-05-15T22:18:50.281Z,72.10
2019-05-15T22:21:19.640Z,72.10
2019-05-15T22:23:48.977Z,71.40
2019-05-15T22:26:21.452Z,73.00
2019-05-15T22:28:49.455Z,74.60
2019-05-15T22:31:18.743Z,76.30
2019-05-15T22:33:49.438Z,75.80
2019-05-15T22:36:19.001Z,77.20
2019-05-15T22:38:50.357Z,78.10
2019-05-15T22:41:19.962Z,79.30
2019-05-15T22:43:49.351Z,80.00
2019-05-15T22:46:18.790Z,80.50
2019-05-15T22:48:48.718Z,80.70
2019-05-15T22:51:18.526Z,82.50
2019-05-15T22:53:48.838Z,81.50
2019-05-15T22:56:19.445Z,82.60
2019-05-15T22:58:48.840Z,82.80
2019-05-15T23:01:18.835Z,83.50
2019-05-15T23:03:48.486Z,84.30
2019-05-15T23:06:18.081Z,84.30
2019-05-15T23:08:48.970Z,84.40
2019-05-15T23:11:18.545Z,84.10
2019-05-15T23:13:48.387Z,85.00
2019-05-15T23:16:18.608Z,85.80
2019-05-15T23:18:48.527Z,87.20
2019-05-15T23:21:19.065Z,87.00
2019-05-15T23:23:48.891Z,86.70
2019-05-15T23:26:18.365Z,87.60
2019-05-15T23:28:48.151Z,89.50
2019-05-15T23:31:18.853Z,88.60
2019-05-15T23:33:48.408Z,88.40
2019-05-15T23:36:18.166Z,88.60
2019-05-15T23:38:48.094Z,89.40
2019-05-15T23:41:18.971Z,89.70
2019-05-15T23:43:48.445Z,89.20
2019-05-15T23:46:18.448Z,89.20
2019-05-15T23:48:48.580Z,89.20
2019-05-15T23:51:18.992Z,89.80
2019-05-15T23:53:48.621Z,90.10
2019-05-15T23:56:18.982Z,90.40
2019-05-15T23:58:48.735Z,90.40
